createdAt,value
2023-01-25T00:02:03.532Z,7.00
2023-01-25T00:04:32.293Z,6.50
2023-01-25T00:06:59.624Z,6.65
2023-01-25T00:09:27.725Z,6.82
2023-01-25T00:11:56.498Z,7.07
2023-01-25T00:14:25.057Z,8.27
2023-01-25T00:16:52.911Z,6.95
2023-01-25T00:19:20.806Z,7.57
2023-01-25T00:21:48.216Z,7.85
2023-01-25T00:24:16.135Z,8.52
2023-01-25T00:26:44.177Z,8.93
2023-01-25T00:29:14.313Z,8.83
2023-01-25T00:32:25.793Z,8.83
2023-01-25T00:34:53.495Z,10.27
2023-01-25T00:37:43.480Z,9.83
2023-01-25T00:40:13.036Z,10.15
2023-01-25T00:42:41.224Z,9.88
2023-01-25T00:45:12.415Z,9.85
2023-01-25T00:47:40.064Z,9.68
2023-01-25T00:50:09.152Z,9.68
2023-01-25T00:52:36.994Z,9.07
2023-01-25T00:55:05.740Z,9.02
2023-01-25T00:57:33.367Z,7.78
2023-01-25T01:00:00.902Z,7.93
2023-01-25T01:02:30.388Z,8.95
2023-01-25T01:04:58.130Z,8.52
2023-01-25T01:07:25.447Z,7.75
2023-01-25T01:09:53.196Z,7.72
2023-01-25T01:12:20.525Z,7.22
2023-01-25T01:14:48.101Z,8.10
2023-01-25T01:17:15.363Z,6.93
2023-01-25T01:19:43.070Z,6.25
2023-01-25T01:22:10.457Z,6.23
2023-01-25T01:24:38.170Z,6.60
2023-01-25T01:27:05.688Z,7.25
2023-01-25T01:29:33.295Z,5.78
2023-01-25T01:32:00.682Z,6.83
2023-01-25T01:34:28.524Z,7.10
2023-01-25T01:36:55.831Z,7.78
2023-01-25T01:39:23.446Z,7.57
2023-01-25T01:41:50.755Z,6.72
2023-01-25T01:44:41.513Z,7.03
2023-01-25T01:47:21.744Z,6.20
2023-01-25T01:49:59.710Z,7.00
2023-01-25T01:52:35.875Z,7.03
2023-01-25T01:55:11.925Z,7.15
2023-01-25T01:57:53.815Z,6.10
2023-01-25T02:00:30.994Z,6.55
2023-01-25T02:02:59.885Z,6.38
2023-01-25T02:05:46.721Z,6.07
2023-01-25T02:08:15.544Z,6.97
2023-01-25T02:10:45.052Z,5.88
2023-01-25T02:13:12.345Z,6.50
2023-01-25T02:15:46.574Z,6.00
2023-01-25T02:18:14.814Z,5.17
2023-01-25T02:20:55.321Z,5.47
2023-01-25T02:23:51.634Z,5.60
2023-01-25T02:26:20.620Z,6.05
2023-01-25T02:28:50.759Z,4.90
2023-01-25T02:31:18.745Z,5.47
2023-01-25T02:33:46.308Z,5.32
2023-01-25T02:36:25.985Z,5.35
2023-01-25T02:39:29.562Z,5.55
2023-01-25T02:41:57.103Z,5.75
2023-01-25T02:44:34.394Z,5.28
2023-01-25T02:47:02.168Z,4.70
2023-01-25T02:49:29.467Z,4.65
2023-01-25T02:51:57.629Z,5.65
2023-01-25T02:54:27.099Z,4.35
2023-01-25T02:56:55.028Z,5.28
2023-01-25T02:59:22.929Z,5.60
2023-01-25T03:01:51.008Z,4.85
2023-01-25T03:04:18.475Z,4.68
2023-01-25T03:06:46.155Z,5.15
2023-01-25T03:09:13.496Z,4.93
2023-01-25T03:11:41.046Z,4.95
2023-01-25T03:14:08.359Z,4.93
2023-01-25T03:16:36.067Z,4.97
2023-01-25T03:19:03.716Z,5.53
2023-01-25T03:21:31.680Z,5.10
2023-01-25T03:24:01.877Z,5.25
2023-01-25T03:26:30.208Z,6.37
2023-01-25T03:28:57.602Z,5.90
2023-01-25T03:31:25.353Z,5.80
2023-01-25T03:33:52.801Z,5.75
2023-01-25T03:36:20.422Z,5.95
2023-01-25T03:38:47.687Z,5.68
2023-01-25T03:41:15.303Z,5.07
2023-01-25T03:43:42.681Z,5.45
2023-01-25T03:46:10.211Z,5.68
2023-01-25T03:48:37.479Z,6.15
2023-01-25T03:51:05.241Z,5.25
2023-01-25T03:53:33.046Z,5.75
2023-01-25T03:56:10.510Z,5.88
2023-01-25T03:58:39.802Z,5.90
2023-01-25T04:01:08.636Z,5.63
2023-01-25T04:03:36.056Z,5.50
2023-01-25T04:06:05.460Z,5.57
2023-01-25T04:08:32.947Z,5.18
2023-01-25T04:11:09.470Z,5.15
2023-01-25T04:13:39.266Z,5.78
2023-01-25T04:16:09.844Z,5.22
2023-01-25T04:18:37.418Z,5.65
2023-01-25T04:21:05.581Z,5.03
2023-01-25T04:23:33.122Z,5.80
2023-01-25T04:26:07.327Z,6.85
2023-01-25T04:28:35.954Z,5.88
2023-01-25T04:31:06.086Z,6.22
2023-01-25T04:33:34.253Z,6.35
2023-01-25T04:36:01.959Z,6.22
2023-01-25T04:38:29.367Z,7.65
2023-01-25T04:40:57.022Z,7.20
2023-01-25T04:43:26.192Z,5.60
2023-01-25T04:45:53.804Z,9.13
2023-01-25T04:48:21.363Z,8.02
2023-01-25T04:50:49.044Z,6.88
2023-01-25T04:53:16.464Z,6.25
2023-01-25T04:55:48.029Z,6.00
2023-01-25T04:58:15.982Z,7.85
2023-01-25T05:00:43.732Z,6.82
2023-01-25T05:03:11.150Z,6.55
2023-01-25T05:05:38.810Z,5.95
2023-01-25T05:08:06.431Z,8.15
2023-01-25T05:10:34.008Z,6.88
2023-01-25T05:13:02.620Z,6.63
2023-01-25T05:15:30.216Z,6.30
2023-01-25T05:17:57.559Z,7.28
2023-01-25T05:20:25.150Z,8.52
2023-01-25T05:22:52.421Z,8.40
2023-01-25T05:25:38.862Z,9.15
2023-01-25T05:28:07.600Z,9.02
2023-01-25T05:30:35.622Z,8.02
2023-01-25T05:33:03.074Z,7.72
2023-01-25T05:35:30.761Z,6.50
2023-01-25T05:37:58.911Z,5.57
2023-01-25T05:40:27.217Z,7.05
2023-01-25T05:42:56.637Z,7.03
2023-01-25T05:45:24.556Z,6.20
2023-01-25T05:47:59.643Z,6.28
2023-01-25T05:50:27.741Z,5.57
2023-01-25T05:52:55.056Z,6.43
2023-01-25T05:55:22.746Z,6.73
2023-01-25T05:57:51.171Z,6.45
2023-01-25T06:00:19.287Z,7.50
2023-01-25T06:02:46.722Z,7.03
2023-01-25T06:05:14.513Z,5.90
2023-01-25T06:07:41.785Z,6.78
2023-01-25T06:10:10.117Z,7.45
2023-01-25T06:12:37.422Z,7.10
2023-01-25T06:15:05.626Z,6.93
2023-01-25T06:17:32.888Z,9.13
2023-01-25T06:20:00.490Z,10.68
2023-01-25T06:22:27.763Z,10.70
2023-01-25T06:24:55.329Z,10.27
2023-01-25T06:27:22.591Z,9.80
2023-01-25T06:29:50.578Z,8.75
2023-01-25T06:32:18.024Z,7.63
2023-01-25T06:34:46.526Z,5.90
2023-01-25T06:37:13.741Z,7.85
2023-01-25T06:39:41.327Z,7.15
2023-01-25T06:42:08.630Z,6.85
2023-01-25T06:44:36.189Z,6.63
2023-01-25T06:47:03.543Z,7.65
2023-01-25T06:49:31.116Z,7.67
2023-01-25T06:51:58.407Z,7.32
2023-01-25T06:54:25.965Z,6.53
2023-01-25T06:56:53.481Z,6.50
2023-01-25T06:59:21.160Z,6.07
2023-01-25T07:01:48.552Z,6.85
2023-01-25T07:04:16.235Z,6.28
2023-01-25T07:06:43.799Z,11.88
2023-01-25T07:09:14.635Z,8.70
2023-01-25T07:11:42.037Z,9.25
2023-01-25T07:14:09.641Z,8.90
2023-01-25T07:16:37.313Z,9.57
2023-01-25T07:19:07.340Z,8.13
2023-01-25T07:21:34.776Z,7.53
2023-01-25T07:24:04.561Z,6.88
2023-01-25T07:26:32.808Z,8.45
2023-01-25T07:29:00.685Z,8.70
2023-01-25T07:31:28.516Z,6.97
2023-01-25T07:33:58.451Z,7.35
2023-01-25T07:36:26.319Z,9.10
2023-01-25T07:38:58.787Z,8.40
2023-01-25T07:41:26.766Z,9.35
2023-01-25T07:43:55.311Z,9.02
2023-01-25T07:46:23.813Z,10.38
2023-01-25T07:48:53.150Z,9.85
2023-01-25T07:51:27.154Z,10.70
2023-01-25T07:53:58.482Z,10.30
2023-01-25T07:56:38.510Z,10.25
2023-01-25T07:59:08.467Z,9.18
2023-01-25T08:01:37.014Z,10.55
2023-01-25T08:04:05.936Z,10.50
2023-01-25T08:06:40.891Z,10.60
2023-01-25T08:09:15.081Z,9.23
2023-01-25T08:11:43.049Z,10.15
2023-01-25T08:14:11.487Z,9.23
2023-01-25T08:16:38.940Z,10.40
2023-01-25T08:19:06.748Z,10.10
2023-01-25T08:21:35.567Z,10.05
2023-01-25T08:24:07.414Z,9.55
2023-01-25T08:26:36.599Z,9.00
2023-01-25T08:29:06.229Z,9.15
2023-01-25T08:31:35.947Z,9.57
2023-01-25T08:34:04.304Z,9.15
2023-01-25T08:36:31.782Z,7.57
2023-01-25T08:39:06.488Z,10.00
2023-01-25T08:41:35.610Z,9.95
2023-01-25T08:44:04.828Z,11.25
2023-01-25T08:46:34.320Z,11.82
2023-01-25T08:49:03.845Z,20.23
2023-01-25T08:51:33.083Z,13.48
2023-01-25T08:54:11.586Z,9.15
2023-01-25T08:56:41.231Z,9.13
2023-01-25T08:59:12.496Z,8.93
2023-01-25T09:01:40.311Z,9.05
2023-01-25T09:04:08.135Z,10.23
2023-01-25T09:06:35.689Z,8.70
2023-01-25T09:09:04.897Z,7.80
2023-01-25T09:11:35.155Z,9.10
2023-01-25T09:14:03.159Z,8.32
2023-01-25T09:16:30.841Z,8.57
2023-01-25T09:19:01.715Z,7.50
2023-01-25T09:21:29.977Z,8.38
2023-01-25T09:24:07.313Z,8.20
2023-01-25T09:26:39.945Z,7.13
2023-01-25T09:29:08.797Z,7.80
2023-01-25T09:31:45.243Z,7.80
2023-01-25T09:34:15.667Z,7.95
2023-01-25T09:36:43.110Z,8.68
2023-01-25T09:39:14.515Z,8.38
2023-01-25T09:42:14.002Z,10.23
2023-01-25T09:44:46.474Z,9.10
2023-01-25T09:47:45.657Z,10.15
2023-01-25T09:50:31.068Z,9.18
2023-01-25T09:53:15.548Z,16.77
2023-01-25T09:55:44.602Z,10.73
2023-01-25T09:58:20.170Z,9.45
2023-01-25T10:01:00.077Z,9.95
2023-01-25T10:03:44.060Z,9.93
2023-01-25T10:06:16.420Z,10.18
2023-01-25T10:08:58.983Z,9.68
2023-01-25T10:11:31.603Z,9.93
2023-01-25T10:14:00.623Z,9.65
2023-01-25T10:16:44.441Z,10.02
2023-01-25T10:19:27.587Z,9.88
2023-01-25T10:22:11.823Z,11.05
2023-01-25T10:25:03.652Z,10.10
2023-01-25T10:28:04.163Z,9.70
2023-01-25T10:31:20.121Z,8.65
2023-01-25T10:33:49.459Z,10.52
2023-01-25T10:36:24.388Z,9.95
2023-01-25T10:38:59.544Z,12.45
2023-01-25T10:41:47.499Z,13.15
2023-01-25T10:44:24.994Z,11.98
2023-01-25T10:47:04.510Z,11.32
2023-01-25T10:49:42.407Z,12.73
2023-01-25T10:52:25.139Z,11.30
2023-01-25T10:55:26.242Z,11.02
2023-01-25T10:57:58.406Z,11.65
2023-01-25T11:00:34.429Z,9.07
2023-01-25T11:03:01.915Z,8.00
2023-01-25T11:05:35.235Z,7.28
2023-01-25T11:08:25.810Z,8.35
2023-01-25T11:10:54.544Z,7.65
2023-01-25T11:13:26.971Z,8.32
2023-01-25T11:16:31.418Z,8.52
2023-01-25T11:19:01.306Z,8.35
2023-01-25T11:21:34.974Z,9.82
2023-01-25T11:24:10.201Z,10.95
2023-01-25T11:26:40.898Z,10.73
2023-01-25T11:29:18.218Z,10.20
2023-01-25T11:31:54.613Z,10.75
2023-01-25T11:34:28.267Z,10.05
2023-01-25T11:37:33.959Z,9.48
2023-01-25T11:40:49.184Z,9.55
2023-01-25T11:43:56.670Z,9.40
2023-01-25T11:46:53.951Z,7.70
2023-01-25T11:49:58.693Z,7.75
2023-01-25T11:52:35.379Z,8.55
2023-01-25T11:55:45.985Z,6.95
2023-01-25T11:58:41.606Z,6.63
2023-01-25T12:01:56.047Z,6.72
2023-01-25T12:04:26.055Z,6.88
2023-01-25T12:07:22.910Z,7.80
2023-01-25T12:10:39.198Z,8.20
2023-01-25T12:13:36.793Z,6.75
2023-01-25T12:16:29.347Z,7.90
2023-01-25T12:19:06.898Z,7.85
2023-01-25T12:22:01.235Z,8.57
2023-01-25T12:24:34.942Z,8.18
2023-01-25T12:27:17.196Z,9.48
2023-01-25T12:30:15.725Z,8.20
2023-01-25T12:33:14.467Z,7.75
2023-01-25T12:35:49.858Z,7.60
2023-01-25T12:38:40.415Z,7.88
2023-01-25T12:41:45.502Z,8.18
2023-01-25T12:44:40.763Z,7.57
2023-01-25T12:47:25.187Z,6.97
2023-01-25T12:50:27.687Z,6.93
2023-01-25T12:53:13.869Z,6.75
2023-01-25T12:55:42.005Z,7.30
2023-01-25T12:58:56.515Z,7.20
2023-01-25T13:01:41.276Z,7.10
2023-01-25T13:04:53.365Z,7.40
2023-01-25T13:07:54.503Z,7.07
2023-01-25T13:10:32.298Z,8.43
2023-01-25T13:13:20.423Z,8.40
2023-01-25T13:15:48.721Z,8.40
2023-01-25T13:18:27.980Z,7.78
2023-01-25T13:21:00.670Z,7.13
2023-01-25T13:23:44.071Z,8.50
2023-01-25T13:26:39.760Z,8.73
2023-01-25T13:29:32.442Z,8.57
2023-01-25T13:32:02.285Z,8.10
2023-01-25T13:34:39.314Z,8.30
2023-01-25T13:37:33.454Z,7.50
2023-01-25T13:40:37.805Z,8.25
2023-01-25T13:43:22.770Z,8.35
2023-01-25T13:45:53.203Z,8.82
2023-01-25T13:48:28.739Z,8.05
2023-01-25T13:51:06.452Z,7.95
2023-01-25T13:53:35.407Z,7.65
2023-01-25T13:56:03.652Z,9.07
2023-01-25T13:58:31.283Z,10.15
2023-01-25T14:01:13.587Z,10.25
2023-01-25T14:03:49.260Z,11.90
2023-01-25T14:06:36.223Z,12.20
2023-01-25T14:09:16.223Z,11.32
2023-01-25T14:11:55.297Z,11.30
2023-01-25T14:14:36.793Z,11.30
2023-01-25T14:17:18.803Z,11.38
2023-01-25T14:19:55.108Z,10.88
2023-01-25T14:22:29.669Z,10.73
2023-01-25T14:25:17.366Z,10.48
2023-01-25T14:27:57.196Z,10.23
2023-01-25T14:30:32.016Z,10.18
2023-01-25T14:33:17.472Z,10.20
2023-01-25T14:35:55.657Z,9.77
2023-01-25T14:38:51.238Z,9.30
2023-01-25T14:41:59.228Z,7.72
2023-01-25T14:44:30.107Z,7.30
2023-01-25T14:47:30.943Z,6.82
2023-01-25T14:50:29.353Z,7.15
2023-01-25T14:53:00.321Z,8.20
2023-01-25T14:55:27.900Z,8.13
2023-01-25T14:58:01.517Z,6.60
2023-01-25T15:00:34.458Z,8.77
2023-01-25T15:03:06.748Z,6.78
2023-01-25T15:05:37.495Z,8.55
2023-01-25T15:08:08.115Z,7.65
2023-01-25T15:10:37.851Z,7.00
2023-01-25T15:13:28.294Z,9.07
2023-01-25T15:16:03.942Z,8.50
2023-01-25T15:18:40.647Z,8.20
2023-01-25T15:21:29.638Z,7.25
2023-01-25T15:24:05.078Z,8.27
2023-01-25T15:26:36.194Z,7.85
2023-01-25T15:29:17.445Z,8.35
2023-01-25T15:31:44.904Z,8.15
2023-01-25T15:34:32.588Z,7.57
2023-01-25T15:37:00.067Z,6.97
2023-01-25T15:39:28.818Z,6.40
2023-01-25T15:41:56.272Z,8.20
2023-01-25T15:44:23.993Z,7.57
2023-01-25T15:46:52.151Z,7.03
2023-01-25T15:49:28.873Z,7.75
2023-01-25T15:51:56.637Z,8.40
2023-01-25T15:54:24.763Z,9.10
2023-01-25T15:56:59.236Z,9.32
2023-01-25T15:59:27.527Z,10.15
2023-01-25T16:01:54.925Z,12.95
2023-01-25T16:04:22.620Z,13.07
2023-01-25T16:06:54.786Z,22.70
2023-01-25T16:09:29.555Z,29.80
2023-01-25T16:11:59.681Z,24.10
2023-01-25T16:14:30.852Z,16.38
2023-01-25T16:17:02.724Z,16.65
2023-01-25T16:19:31.045Z,13.48
2023-01-25T16:21:59.220Z,14.57
2023-01-25T16:24:26.900Z,20.00
2023-01-25T16:27:00.738Z,14.27
2023-01-25T16:29:29.609Z,18.48
2023-01-25T16:31:57.374Z,17.75
2023-01-25T16:34:25.082Z,12.27
2023-01-25T16:36:53.286Z,12.00
2023-01-25T16:39:24.810Z,11.20
2023-01-25T16:41:52.304Z,10.95
2023-01-25T16:44:20.212Z,12.55
2023-01-25T16:46:51.221Z,14.13
2023-01-25T16:49:30.530Z,12.45
2023-01-25T16:51:59.291Z,12.35
2023-01-25T16:54:27.038Z,13.82
2023-01-25T16:56:55.551Z,13.90
2023-01-25T16:59:25.052Z,11.75
2023-01-25T17:01:52.548Z,12.25
2023-01-25T17:04:20.456Z,12.38
2023-01-25T17:06:50.889Z,11.40
2023-01-25T17:09:23.530Z,11.23
2023-01-25T17:11:53.406Z,11.23
2023-01-25T17:14:22.222Z,11.13
2023-01-25T17:16:52.101Z,9.55
2023-01-25T17:19:20.927Z,10.85
2023-01-25T17:21:48.669Z,11.18
2023-01-25T17:24:21.713Z,12.25
2023-01-25T17:26:49.655Z,10.32
2023-01-25T17:29:17.671Z,9.90
2023-01-25T17:31:45.119Z,9.73
2023-01-25T17:34:16.365Z,10.00
2023-01-25T17:36:45.279Z,10.27
2023-01-25T17:39:16.343Z,13.77
2023-01-25T17:41:45.888Z,12.90
2023-01-25T17:44:20.259Z,12.60
2023-01-25T17:46:49.356Z,12.38
2023-01-25T17:49:17.612Z,10.95
2023-01-25T17:51:45.762Z,11.57
2023-01-25T17:54:13.565Z,10.60
2023-01-25T17:56:41.013Z,12.65
2023-01-25T17:59:11.483Z,14.75
2023-01-25T18:01:43.495Z,15.93
2023-01-25T18:04:13.370Z,14.27
2023-01-25T18:06:40.835Z,15.57
2023-01-25T18:09:08.484Z,13.10
2023-01-25T18:11:40.137Z,14.13
2023-01-25T18:14:12.948Z,11.48
2023-01-25T18:16:41.378Z,11.63
2023-01-25T18:19:10.278Z,11.50
2023-01-25T18:21:39.130Z,12.73
2023-01-25T18:24:31.797Z,12.02
2023-01-25T18:27:15.437Z,11.85
2023-01-25T18:30:23.856Z,12.05
2023-01-25T18:32:51.199Z,12.65
2023-01-25T18:35:18.982Z,11.50
2023-01-25T18:37:46.964Z,10.93
2023-01-25T18:40:15.268Z,11.50
2023-01-25T18:42:42.670Z,11.93
2023-01-25T18:45:10.803Z,10.88
2023-01-25T18:47:38.713Z,10.02
2023-01-25T18:50:08.863Z,11.23
2023-01-25T18:52:36.588Z,10.00
2023-01-25T18:55:04.545Z,10.27
2023-01-25T18:57:32.224Z,10.70
2023-01-25T18:59:59.967Z,10.10
2023-01-25T19:02:27.773Z,10.18
2023-01-25T19:04:55.737Z,10.23
2023-01-25T19:07:23.067Z,9.82
2023-01-25T19:09:50.717Z,10.75
2023-01-25T19:12:18.204Z,10.83
2023-01-25T19:14:45.867Z,10.32
2023-01-25T19:17:13.250Z,9.45
2023-01-25T19:19:42.542Z,9.17
2023-01-25T19:22:10.252Z,8.77
2023-01-25T19:24:37.851Z,8.50
2023-01-25T19:27:05.270Z,8.85
2023-01-25T19:29:33.048Z,10.52
2023-01-25T19:32:00.883Z,9.40
2023-01-25T19:34:29.239Z,9.80
2023-01-25T19:36:57.481Z,9.00
2023-01-25T19:39:25.310Z,9.43
2023-01-25T19:41:53.516Z,9.90
2023-01-25T19:44:21.377Z,9.47
2023-01-25T19:46:49.189Z,8.82
2023-01-25T19:49:17.144Z,8.68
2023-01-25T19:51:49.011Z,8.33
2023-01-25T19:54:18.304Z,9.80
2023-01-25T19:56:49.638Z,10.30
2023-01-25T19:59:25.047Z,9.32
2023-01-25T20:01:53.255Z,8.70
2023-01-25T20:04:23.659Z,9.02
2023-01-25T20:06:52.499Z,9.18
2023-01-25T20:09:24.988Z,8.52
2023-01-25T20:11:56.486Z,8.57
2023-01-25T20:14:24.401Z,9.33
2023-01-25T20:16:54.976Z,9.23
2023-01-25T20:19:22.683Z,8.30
2023-01-25T20:21:50.095Z,7.70
2023-01-25T20:24:18.077Z,7.43
2023-01-25T20:26:45.671Z,7.57
2023-01-25T20:29:13.852Z,7.47
2023-01-25T20:31:44.590Z,7.90
2023-01-25T20:34:19.748Z,7.72
2023-01-25T20:36:48.563Z,7.55
2023-01-25T20:39:21.993Z,7.43
2023-01-25T20:41:53.529Z,8.50
2023-01-25T20:44:21.539Z,7.85
2023-01-25T20:46:50.085Z,8.77
2023-01-25T20:49:19.099Z,8.63
2023-01-25T20:51:47.737Z,8.63
2023-01-25T20:54:18.265Z,8.83
2023-01-25T20:56:48.254Z,8.68
2023-01-25T20:59:17.815Z,8.60
2023-01-25T21:01:45.183Z,8.60
2023-01-25T21:04:13.005Z,9.65
2023-01-25T21:06:40.403Z,9.25
2023-01-25T21:09:08.106Z,8.60
2023-01-25T21:11:35.545Z,9.00
2023-01-25T21:14:03.313Z,9.10
2023-01-25T21:16:30.903Z,9.95
2023-01-25T21:19:04.812Z,9.77
2023-01-25T21:21:34.811Z,9.27
2023-01-25T21:24:05.500Z,9.07
2023-01-25T21:26:35.401Z,9.63
2023-01-25T21:29:06.324Z,10.60
2023-01-25T21:31:37.741Z,10.60
2023-01-25T21:34:06.653Z,10.93
2023-01-25T21:36:34.085Z,10.67
2023-01-25T21:39:02.098Z,11.03
2023-01-25T21:41:33.855Z,12.10
2023-01-25T21:44:21.235Z,12.00
2023-01-25T21:47:15.775Z,11.50
2023-01-25T21:49:55.078Z,11.45
2023-01-25T21:52:22.444Z,12.00
2023-01-25T21:54:50.132Z,12.30
2023-01-25T21:57:17.599Z,12.73
2023-01-25T21:59:45.286Z,12.95
2023-01-25T22:02:14.958Z,13.30
2023-01-25T22:04:43.311Z,13.23
2023-01-25T22:07:11.797Z,13.40
2023-01-25T22:09:39.436Z,14.10
2023-01-25T22:12:06.943Z,13.97
2023-01-25T22:14:35.024Z,14.13
2023-01-25T22:17:03.288Z,13.87
2023-01-25T22:19:31.111Z,13.82
2023-01-25T22:21:58.403Z,13.17
2023-01-25T22:24:26.191Z,13.88
2023-01-25T22:27:08.502Z,14.00
2023-01-25T22:29:36.296Z,13.75
2023-01-25T22:32:04.185Z,15.37
2023-01-25T22:34:31.785Z,13.83
2023-01-25T22:36:59.202Z,15.75
2023-01-25T22:39:26.884Z,15.87
2023-01-25T22:41:54.221Z,15.83
2023-01-25T22:44:21.903Z,14.68
2023-01-25T22:46:50.968Z,15.53
2023-01-25T22:49:19.174Z,14.57
2023-01-25T22:51:46.452Z,16.63
2023-01-25T22:54:14.066Z,14.43
2023-01-25T22:56:41.327Z,14.23
2023-01-25T22:59:14.893Z,15.43
2023-01-25T23:01:42.154Z,13.73
2023-01-25T23:04:10.500Z,15.03
2023-01-25T23:06:38.424Z,14.17
2023-01-25T23:09:07.367Z,15.07
2023-01-25T23:11:38.122Z,14.63
2023-01-25T23:14:27.549Z,14.00
2023-01-25T23:17:14.888Z,14.67
2023-01-25T23:19:42.579Z,15.47
2023-01-25T23:22:09.909Z,15.00
2023-01-25T23:24:37.461Z,14.57
2023-01-25T23:27:04.799Z,15.45
2023-01-25T23:29:32.819Z,16.90
2023-01-25T23:32:00.210Z,15.65
2023-01-25T23:34:27.949Z,15.33
2023-01-25T23:36:55.249Z,16.30
2023-01-25T23:39:23.697Z,17.43
2023-01-25T23:41:52.480Z,14.80
2023-01-25T23:44:20.026Z,15.20
2023-01-25T23:46:48.391Z,15.00
2023-01-25T23:49:16.099Z,13.63
2023-01-25T23:51:43.340Z,14.20
2023-01-25T23:54:10.948Z,14.20
2023-01-25T23:56:38.219Z,13.80
2023-01-25T23:59:05.790Z,13.87
